sensor_id;sensor_type;location;lat;lon;timestamp;temperature;humidity
11656;DHT22;5884;43.618;1.438;2023-08-31T04:47:04;16.80;99.90
11656;DHT22;5884;43.618;1.438;2023-08-31T04:49:31;16.80;99.90
11656;DHT22;5884;43.618;1.438;2023-08-31T04:51:59;16.70;99.90
11656;DHT22;5884;43.618;1.438;2023-08-31T04:54:26;16.70;99.90
11656;DHT22;5884;43.618;1.438;2023-08-31T04:56:53;16.70;99.90
11656;DHT22;5884;43.618;1.438;2023-08-31T04:59:20;16.70;99.90
11656;DHT22;5884;43.618;1.438;2023-08-31T05:01:47;16.70;99.90
11656;DHT22;5884;43.618;1.438;2023-08-31T05:04:16;16.60;99.90
11656;DHT22;5884;43.618;1.438;2023-08-31T05:06:43;16.60;99.90
11656;DHT22;5884;43.618;1.438;2023-08-31T05:09:10;16.50;99.90
11656;DHT22;5884;43.618;1.438;2023-08-31T05:11:37;16.50;99.90
11656;DHT22;5884;43.618;1.438;2023-08-31T05:14:05;16.40;99.90
11656;DHT22;5884;43.618;1.438;2023-08-31T05:16:32;16.40;99.90
11656;DHT22;5884;43.618;1.438;2023-08-31T05:19:00;16.40;99.90
11656;DHT22;5884;43.618;1.438;2023-08-31T05:21:29;16.40;99.90
11656;DHT22;5884;43.618;1.438;2023-08-31T05:23:57;16.40;99.90
11656;DHT22;5884;43.618;1.438;2023-08-31T05:26:24;16.40;99.90
11656;DHT22;5884;43.618;1.438;2023-08-31T05:28:51;16.40;99.90
11656;DHT22;5884;43.618;1.438;2023-08-31T05:31:18;16.50;99.90
11656;DHT22;5884;43.618;1.438;2023-08-31T05:33:45;16.40;99.90
11656;DHT22;5884;43.618;1.438;2023-08-31T05:36:13;16.40;99.90
11656;DHT22;5884;43.618;1.438;2023-08-31T05:38:42;16.30;99.90
11656;DHT22;5884;43.618;1.438;2023-08-31T05:41:09;16.40;99.90
11656;DHT22;5884;43.618;1.438;2023-08-31T05:43:37;16.40;99.90
11656;DHT22;5884;43.618;1.438;2023-08-31T05:46:06;16.30;99.90
11656;DHT22;5884;43.618;1.438;2023-08-31T05:48:34;16.40;99.90
11656;DHT22;5884;43.618;1.438;2023-08-31T05:51:01;16.40;99.90
11656;DHT22;5884;43.618;1.438;2023-08-31T05:53:29;16.40;99.90
11656;DHT22;5884;43.618;1.438;2023-08-31T05:55:58;16.40;99.90
11656;DHT22;5884;43.618;1.438;2023-08-31T05:58:30;16.40;99.90
11656;DHT22;5884;43.618;1.438;2023-08-31T06:00:58;16.40;99.90
11656;DHT22;5884;43.618;1.438;2023-08-31T06:03:26;16.40;99.90
11656;DHT22;5884;43.618;1.438;2023-08-31T06:05:54;16.40;99.90
11656;DHT22;5884;43.618;1.438;2023-08-31T06:08:22;16.40;99.90
11656;DHT22;5884;43.618;1.438;2023-08-31T06:10:49;16.50;99.90
11656;DHT22;5884;43.618;1.438;2023-08-31T06:13:18;16.40;99.90
11656;DHT22;5884;43.618;1.438;2023-08-31T06:15:45;16.50;99.90
11656;DHT22;5884;43.618;1.438;2023-08-31T06:18:12;16.50;99.90
11656;DHT22;5884;43.618;1.438;2023-08-31T06:20:40;16.70;99.90
11656;DHT22;5884;43.618;1.438;2023-08-31T06:23:07;16.80;99.90
11656;DHT22;5884;43.618;1.438;2023-08-31T06:25:34;16.90;99.90
11656;DHT22;5884;43.618;1.438;2023-08-31T06:28:01;17.00;99.90
11656;DHT22;5884;43.618;1.438;2023-08-31T06:30:32;17.00;99.90
11656;DHT22;5884;43.618;1.438;2023-08-31T06:32:59;17.10;99.90
11656;DHT22;5884;43.618;1.438;2023-08-31T06:35:26;17.10;99.90
11656;DHT22;5884;43.618;1.438;2023-08-31T06:37:54;17.20;99.90
11656;DHT22;5884;43.618;1.438;2023-08-31T06:40:21;17.10;99.90
11656;DHT22;5884;43.618;1.438;2023-08-31T06:42:48;17.10;99.90
11656;DHT22;5884;43.618;1.438;2023-08-31T06:45:16;17.20;99.90
11656;DHT22;5884;43.618;1.438;2023-08-31T06:47:44;17.20;99.90
11656;DHT22;5884;43.618;1.438;2023-08-31T06:50:11;17.30;99.90
11656;DHT22;5884;43.618;1.438;2023-08-31T06:52:39;17.40;99.90
11656;DHT22;5884;43.618;1.438;2023-08-31T06:55:07;17.40;99.90
11656;DHT22;5884;43.618;1.438;2023-08-31T06:57:36;17.50;99.90
11656;DHT22;5884;43.618;1.438;2023-08-31T07:00:04;17.50;99.90
11656;DHT22;5884;43.618;1.438;2023-08-31T07:02:34;17.60;99.90
11656;DHT22;5884;43.618;1.438;2023-08-31T07:05:05;17.70;99.90
11656;DHT22;5884;43.618;1.438;2023-08-31T07:07:33;17.90;99.90
11656;DHT22;5884;43.618;1.438;2023-08-31T07:10:00;18.00;99.90
11656;DHT22;5884;43.618;1.438;2023-08-31T07:12:27;18.00;99.90
11656;DHT22;5884;43.618;1.438;2023-08-31T07:14:55;18.10;99.90
11656;DHT22;5884;43.618;1.438;2023-08-31T07:17:22;18.50;99.90
11656;DHT22;5884;43.618;1.438;2023-08-31T07:19:49;18.40;99.90
11656;DHT22;5884;43.618;1.438;2023-08-31T07:22:18;18.20;99.90
11656;DHT22;5884;43.618;1.438;2023-08-31T07:24:45;18.20;99.90
11656;DHT22;5884;43.618;1.438;2023-08-31T07:27:12;18.30;99.90
11656;DHT22;5884;43.618;1.438;2023-08-31T07:29:39;18.30;99.90
11656;DHT22;5884;43.618;1.438;2023-08-31T07:32:07;18.40;99.90
11656;DHT22;5884;43.618;1.438;2023-08-31T07:34:34;18.40;99.90
11656;DHT22;5884;43.618;1.438;2023-08-31T07:37:02;18.40;99.90
11656;DHT22;5884;43.618;1.438;2023-08-31T07:39:33;18.30;99.90
11656;DHT22;5884;43.618;1.438;2023-08-31T07:42:00;18.50;99.90
11656;DHT22;5884;43.618;1.438;2023-08-31T07:44:27;18.40;99.90
11656;DHT22;5884;43.618;1.438;2023-08-31T07:46:55;18.50;99.90
11656;DHT22;5884;43.618;1.438;2023-08-31T07:49:22;18.50;99.90
11656;DHT22;5884;43.618;1.438;2023-08-31T07:51:49;18.60;99.90
11656;DHT22;5884;43.618;1.438;2023-08-31T07:54:20;18.70;99.90
11656;DHT22;5884;43.618;1.438;2023-08-31T07:56:49;18.70;99.90
11656;DHT22;5884;43.618;1.438;2023-08-31T07:59:16;18.60;99.90
11656;DHT22;5884;43.618;1.438;2023-08-31T08:01:44;18.60;99.90
11656;DHT22;5884;43.618;1.438;2023-08-31T08:04:11;18.70;99.90
11656;DHT22;5884;43.618;1.438;2023-08-31T08:06:38;18.90;99.90
11656;DHT22;5884;43.618;1.438;2023-08-31T08:09:06;19.00;99.90
11656;DHT22;5884;43.618;1.438;2023-08-31T08:11:34;18.90;99.90
11656;DHT22;5884;43.618;1.438;2023-08-31T08:14:03;18.90;99.90
11656;DHT22;5884;43.618;1.438;2023-08-31T08:16:31;19.00;99.90
11656;DHT22;5884;43.618;1.438;2023-08-31T08:18:58;19.20;99.90
11656;DHT22;5884;43.618;1.438;2023-08-31T08:21:25;19.30;99.90
11656;DHT22;5884;43.618;1.438;2023-08-31T08:23:52;19.60;99.90
11656;DHT22;5884;43.618;1.438;2023-08-31T08:26:19;19.70;99.90
11656;DHT22;5884;43.618;1.438;2023-08-31T08:28:47;19.90;99.90
11656;DHT22;5884;43.618;1.438;2023-08-31T08:31:15;20.10;99.90
11656;DHT22;5884;43.618;1.438;2023-08-31T08:33:43;20.10;99.90
11656;DHT22;5884;43.618;1.438;2023-08-31T08:36:10;20.20;99.90
11656;DHT22;5884;43.618;1.438;2023-08-31T08:38:37;20.20;99.90
11656;DHT22;5884;43.618;1.438;2023-08-31T08:41:05;20.00;99.90
11656;DHT22;5884;43.618;1.438;2023-08-31T08:43:33;20.00;99.90
11656;DHT22;5884;43.618;1.438;2023-08-31T08:46:04;19.90;99.90
11656;DHT22;5884;43.618;1.438;2023-08-31T08:48:35;19.70;99.90
11656;DHT22;5884;43.618;1.438;2023-08-31T08:51:03;19.70;99.90
11656;DHT22;5884;43.618;1.438;2023-08-31T08:53:31;19.70;99.90
11656;DHT22;5884;43.618;1.438;2023-08-31T08:55:58;19.80;99.90
11656;DHT22;5884;43.618;1.438;2023-08-31T08:58:25;19.80;99.90
11656;DHT22;5884;43.618;1.438;2023-08-31T09:00:54;19.90;99.90
11656;DHT22;5884;43.618;1.438;2023-08-31T09:03:23;19.90;99.90
11656;DHT22;5884;43.618;1.438;2023-08-31T09:05:52;19.90;99.90
11656;DHT22;5884;43.618;1.438;2023-08-31T09:08:25;19.90;99.90
11656;DHT22;5884;43.618;1.438;2023-08-31T09:10:55;19.90;99.90
11656;DHT22;5884;43.618;1.438;2023-08-31T09:13:27;19.80;99.90
11656;DHT22;5884;43.618;1.438;2023-08-31T09:15:55;19.80;99.90
11656;DHT22;5884;43.618;1.438;2023-08-31T09:18:24;20.20;99.90
11656;DHT22;5884;43.618;1.438;2023-08-31T09:20:54;20.50;99.90
11656;DHT22;5884;43.618;1.438;2023-08-31T09:23:23;20.80;99.90
11656;DHT22;5884;43.618;1.438;2023-08-31T09:25:51;21.00;99.90
11656;DHT22;5884;43.618;1.438;2023-08-31T09:28:20;21.00;99.90
11656;DHT22;5884;43.618;1.438;2023-08-31T09:30:49;21.30;99.90
11656;DHT22;5884;43.618;1.438;2023-08-31T09:33:19;21.40;99.90
11656;DHT22;5884;43.618;1.438;2023-08-31T09:35:48;21.20;99.90
11656;DHT22;5884;43.618;1.438;2023-08-31T09:38:18;21.40;99.90
11656;DHT22;5884;43.618;1.438;2023-08-31T09:40:46;21.60;99.90
11656;DHT22;5884;43.618;1.438;2023-08-31T09:43:19;21.90;99.90
11656;DHT22;5884;43.618;1.438;2023-08-31T09:45:47;21.80;99.90
11656;DHT22;5884;43.618;1.438;2023-08-31T09:48:15;21.50;99.90
11656;DHT22;5884;43.618;1.438;2023-08-31T09:50:44;21.60;99.90
11656;DHT22;5884;43.618;1.438;2023-08-31T09:53:12;21.90;99.90
11656;DHT22;5884;43.618;1.438;2023-08-31T09:55:41;22.00;99.90
11656;DHT22;5884;43.618;1.438;2023-08-31T09:58:10;21.90;99.90
11656;DHT22;5884;43.618;1.438;2023-08-31T10:00:38;21.60;99.90
11656;DHT22;5884;43.618;1.438;2023-08-31T10:03:06;21.50;99.90
11656;DHT22;5884;43.618;1.438;2023-08-31T10:05:34;21.60;99.90
11656;DHT22;5884;43.618;1.438;2023-08-31T10:08:02;21.50;99.90
11656;DHT22;5884;43.618;1.438;2023-08-31T10:10:29;21.50;99.90
11656;DHT22;5884;43.618;1.438;2023-08-31T10:12:59;21.30;99.90
11656;DHT22;5884;43.618;1.438;2023-08-31T10:15:30;21.10;99.90
11656;DHT22;5884;43.618;1.438;2023-08-31T10:17:59;21.00;99.90
11656;DHT22;5884;43.618;1.438;2023-08-31T10:20:29;20.90;99.90
11656;DHT22;5884;43.618;1.438;2023-08-31T10:22:58;20.80;99.90
11656;DHT22;5884;43.618;1.438;2023-08-31T10:25:25;21.30;99.90
11656;DHT22;5884;43.618;1.438;2023-08-31T10:28:41;21.80;99.90
11656;DHT22;5884;43.618;1.438;2023-08-31T10:31:09;22.10;99.90
11656;DHT22;5884;43.618;1.438;2023-08-31T10:33:40;22.10;99.90
11656;DHT22;5884;43.618;1.438;2023-08-31T10:36:13;22.20;99.90
11656;DHT22;5884;43.618;1.438;2023-08-31T10:38:44;22.20;99.90
11656;DHT22;5884;43.618;1.438;2023-08-31T10:41:20;22.00;99.90
11656;DHT22;5884;43.618;1.438;2023-08-31T10:43:50;22.10;99.90
11656;DHT22;5884;43.618;1.438;2023-08-31T10:46:30;22.00;99.90
11656;DHT22;5884;43.618;1.438;2023-08-31T10:48:59;22.10;99.90
11656;DHT22;5884;43.618;1.438;2023-08-31T10:51:30;22.30;99.90
11656;DHT22;5884;43.618;1.438;2023-08-31T10:54:05;22.30;99.90
11656;DHT22;5884;43.618;1.438;2023-08-31T10:59:24;22.00;99.90
11656;DHT22;5884;43.618;1.438;2023-08-31T11:01:53;22.00;99.90
11656;DHT22;5884;43.618;1.438;2023-08-31T11:04:21;22.10;99.90
11656;DHT22;5884;43.618;1.438;2023-08-31T11:09:41;21.90;99.90
11656;DHT22;5884;43.618;1.438;2023-08-31T11:12:09;21.80;99.90
11656;DHT22;5884;43.618;1.438;2023-08-31T11:14:38;22.10;99.90
11656;DHT22;5884;43.618;1.438;2023-08-31T11:17:05;22.30;99.90
11656;DHT22;5884;43.618;1.438;2023-08-31T11:19:33;22.60;99.90
11656;DHT22;5884;43.618;1.438;2023-08-31T11:22:01;22.50;99.90
11656;DHT22;5884;43.618;1.438;2023-08-31T11:24:29;22.60;99.90
11656;DHT22;5884;43.618;1.438;2023-08-31T11:26:56;22.70;99.90
11656;DHT22;5884;43.618;1.438;2023-08-31T11:29:23;22.60;99.90
11656;DHT22;5884;43.618;1.438;2023-08-31T11:31:51;22.70;99.90
11656;DHT22;5884;43.618;1.438;2023-08-31T11:34:19;22.90;99.90
11656;DHT22;5884;43.618;1.438;2023-08-31T11:36:47;23.00;99.90
11656;DHT22;5884;43.618;1.438;2023-08-31T11:39:14;23.20;99.90
11656;DHT22;5884;43.618;1.438;2023-08-31T11:41:42;23.20;99.90
11656;DHT22;5884;43.618;1.438;2023-08-31T11:44:11;23.20;99.90
11656;DHT22;5884;43.618;1.438;2023-08-31T11:46:40;23.20;99.90
11656;DHT22;5884;43.618;1.438;2023-08-31T11:49:10;23.30;99.90
11656;DHT22;5884;43.618;1.438;2023-08-31T11:51:39;23.10;99.90
11656;DHT22;5884;43.618;1.438;2023-08-31T11:54:07;22.90;99.90
11656;DHT22;5884;43.618;1.438;2023-08-31T11:56:40;23.00;99.90
11656;DHT22;5884;43.618;1.438;2023-08-31T11:59:10;22.80;99.90
11656;DHT22;5884;43.618;1.438;2023-08-31T12:01:39;22.90;99.90
11656;DHT22;5884;43.618;1.438;2023-08-31T12:04:14;23.10;99.90
11656;DHT22;5884;43.618;1.438;2023-08-31T12:06:46;23.20;99.90
11656;DHT22;5884;43.618;1.438;2023-08-31T12:09:14;23.30;99.90
11656;DHT22;5884;43.618;1.438;2023-08-31T12:11:41;23.50;99.90
11656;DHT22;5884;43.618;1.438;2023-08-31T12:14:19;23.60;99.90
11656;DHT22;5884;43.618;1.438;2023-08-31T12:16:47;23.70;99.90
11656;DHT22;5884;43.618;1.438;2023-08-31T12:19:16;23.50;99.90
11656;DHT22;5884;43.618;1.438;2023-08-31T12:21:46;23.40;99.90
11656;DHT22;5884;43.618;1.438;2023-08-31T12:24:13;23.50;99.90
11656;DHT22;5884;43.618;1.438;2023-08-31T12:26:42;23.60;99.90
11656;DHT22;5884;43.618;1.438;2023-08-31T12:29:09;23.60;99.90
11656;DHT22;5884;43.618;1.438;2023-08-31T12:31:37;23.70;99.90
11656;DHT22;5884;43.618;1.438;2023-08-31T12:34:04;23.80;99.90
11656;DHT22;5884;43.618;1.438;2023-08-31T12:36:34;23.80;99.90
11656;DHT22;5884;43.618;1.438;2023-08-31T12:39:02;23.80;99.90
11656;DHT22;5884;43.618;1.438;2023-08-31T12:41:34;23.80;99.90
11656;DHT22;5884;43.618;1.438;2023-08-31T12:44:02;24.00;99.90
11656;DHT22;5884;43.618;1.438;2023-08-31T12:46:30;24.10;99.90
11656;DHT22;5884;43.618;1.438;2023-08-31T12:48:58;24.10;99.90
11656;DHT22;5884;43.618;1.438;2023-08-31T12:51:26;24.00;99.90
11656;DHT22;5884;43.618;1.438;2023-08-31T12:53:54;24.10;99.90
11656;DHT22;5884;43.618;1.438;2023-08-31T12:56:22;24.10;99.90
11656;DHT22;5884;43.618;1.438;2023-08-31T12:58:50;24.20;99.90
11656;DHT22;5884;43.618;1.438;2023-08-31T13:01:18;24.30;99.90
11656;DHT22;5884;43.618;1.438;2023-08-31T13:03:46;24.20;99.90
11656;DHT22;5884;43.618;1.438;2023-08-31T13:06:13;24.20;99.90
11656;DHT22;5884;43.618;1.438;2023-08-31T13:08:42;24.30;99.90
11656;DHT22;5884;43.618;1.438;2023-08-31T13:11:11;24.40;99.90
11656;DHT22;5884;43.618;1.438;2023-08-31T13:13:39;24.20;99.90
11656;DHT22;5884;43.618;1.438;2023-08-31T13:16:06;24.30;99.90
11656;DHT22;5884;43.618;1.438;2023-08-31T13:18:33;24.30;99.90
11656;DHT22;5884;43.618;1.438;2023-08-31T13:21:00;24.30;99.90
11656;DHT22;5884;43.618;1.438;2023-08-31T13:23:29;24.40;99.90
11656;DHT22;5884;43.618;1.438;2023-08-31T13:25:56;24.50;99.90
11656;DHT22;5884;43.618;1.438;2023-08-31T13:28:25;24.60;99.90
11656;DHT22;5884;43.618;1.438;2023-08-31T13:30:55;24.60;99.90
11656;DHT22;5884;43.618;1.438;2023-08-31T13:33:23;24.60;99.90
11656;DHT22;5884;43.618;1.438;2023-08-31T13:35:51;24.50;99.90
11656;DHT22;5884;43.618;1.438;2023-08-31T13:38:18;24.60;99.90
11656;DHT22;5884;43.618;1.438;2023-08-31T13:40:45;24.70;99.90
11656;DHT22;5884;43.618;1.438;2023-08-31T13:43:12;24.60;99.90
11656;DHT22;5884;43.618;1.438;2023-08-31T13:45:41;24.80;99.90
11656;DHT22;5884;43.618;1.438;2023-08-31T13:48:08;25.00;99.90
11656;DHT22;5884;43.618;1.438;2023-08-31T13:50:35;25.00;99.90
11656;DHT22;5884;43.618;1.438;2023-08-31T13:53:03;25.00;99.90
11656;DHT22;5884;43.618;1.438;2023-08-31T13:55:30;24.90;99.90
11656;DHT22;5884;43.618;1.438;2023-08-31T13:58:04;24.80;99.90
11656;DHT22;5884;43.618;1.438;2023-08-31T14:00:33;24.80;99.90
11656;DHT22;5884;43.618;1.438;2023-08-31T14:03:02;25.00;99.90
11656;DHT22;5884;43.618;1.438;2023-08-31T14:05:30;24.90;99.90
11656;DHT22;5884;43.618;1.438;2023-08-31T14:07:58;24.90;99.90
11656;DHT22;5884;43.618;1.438;2023-08-31T14:10:27;24.90;99.90
11656;DHT22;5884;43.618;1.438;2023-08-31T14:12:54;24.90;99.90
11656;DHT22;5884;43.618;1.438;2023-08-31T14:15:21;25.00;99.90
11656;DHT22;5884;43.618;1.438;2023-08-31T14:17:50;25.00;99.90
11656;DHT22;5884;43.618;1.438;2023-08-31T14:20:20;24.90;99.90
11656;DHT22;5884;43.618;1.438;2023-08-31T14:22:48;24.80;99.90
11656;DHT22;5884;43.618;1.438;2023-08-31T14:25:16;24.80;99.90
11656;DHT22;5884;43.618;1.438;2023-08-31T14:27:43;25.00;99.90
11656;DHT22;5884;43.618;1.438;2023-08-31T14:30:11;25.10;99.90
11656;DHT22;5884;43.618;1.438;2023-08-31T14:32:38;25.30;99.90
11656;DHT22;5884;43.618;1.438;2023-08-31T14:35:06;25.10;99.90
11656;DHT22;5884;43.618;1.438;2023-08-31T14:37:35;25.20;99.90
11656;DHT22;5884;43.618;1.438;2023-08-31T14:40:02;25.30;99.90
11656;DHT22;5884;43.618;1.438;2023-08-31T14:42:32;25.30;99.90
11656;DHT22;5884;43.618;1.438;2023-08-31T14:44:59;25.40;99.90
11656;DHT22;5884;43.618;1.438;2023-08-31T14:47:26;25.40;99.90
11656;DHT22;5884;43.618;1.438;2023-08-31T14:49:55;25.40;99.90
11656;DHT22;5884;43.618;1.438;2023-08-31T14:52:22;25.40;99.90
11656;DHT22;5884;43.618;1.438;2023-08-31T14:54:51;25.20;99.90
11656;DHT22;5884;43.618;1.438;2023-08-31T14:57:18;25.00;99.90
11656;DHT22;5884;43.618;1.438;2023-08-31T14:59:45;25.00;99.90
11656;DHT22;5884;43.618;1.438;2023-08-31T15:02:12;25.00;99.90
11656;DHT22;5884;43.618;1.438;2023-08-31T15:04:41;25.20;99.90
11656;DHT22;5884;43.618;1.438;2023-08-31T15:07:09;25.30;99.90
11656;DHT22;5884;43.618;1.438;2023-08-31T15:09:36;25.40;99.90
11656;DHT22;5884;43.618;1.438;2023-08-31T15:12:05;25.50;99.90
11656;DHT22;5884;43.618;1.438;2023-08-31T15:14:33;25.40;99.90
11656;DHT22;5884;43.618;1.438;2023-08-31T15:17:00;25.40;99.90
11656;DHT22;5884;43.618;1.438;2023-08-31T15:19:28;25.50;99.90
11656;DHT22;5884;43.618;1.438;2023-08-31T15:21:55;25.40;99.90
11656;DHT22;5884;43.618;1.438;2023-08-31T15:24:22;25.60;99.90
11656;DHT22;5884;43.618;1.438;2023-08-31T15:26:49;25.70;99.90
11656;DHT22;5884;43.618;1.438;2023-08-31T15:29:18;25.80;99.90
11656;DHT22;5884;43.618;1.438;2023-08-31T15:31:46;25.80;99.90
11656;DHT22;5884;43.618;1.438;2023-08-31T15:34:13;25.70;99.90
11656;DHT22;5884;43.618;1.438;2023-08-31T15:36:40;25.70;99.90
11656;DHT22;5884;43.618;1.438;2023-08-31T15:39:07;25.60;99.90
11656;DHT22;5884;43.618;1.438;2023-08-31T15:41:38;25.50;99.90
11656;DHT22;5884;43.618;1.438;2023-08-31T15:44:05;25.60;99.90
11656;DHT22;5884;43.618;1.438;2023-08-31T15:46:34;25.70;99.90
11656;DHT22;5884;43.618;1.438;2023-08-31T15:49:01;25.70;99.90
11656;DHT22;5884;43.618;1.438;2023-08-31T15:51:28;25.60;99.90
11656;DHT22;5884;43.618;1.438;2023-08-31T15:53:58;25.70;99.90
11656;DHT22;5884;43.618;1.438;2023-08-31T15:56:29;25.70;99.90
11656;DHT22;5884;43.618;1.438;2023-08-31T15:58:56;25.70;99.90
11656;DHT22;5884;43.618;1.438;2023-08-31T16:01:23;25.70;99.90
11656;DHT22;5884;43.618;1.438;2023-08-31T16:03:53;25.60;99.90
11656;DHT22;5884;43.618;1.438;2023-08-31T16:06:20;25.60;99.90
11656;DHT22;5884;43.618;1.438;2023-08-31T16:08:48;25.50;99.90
11656;DHT22;5884;43.618;1.438;2023-08-31T16:11:15;25.50;99.90
11656;DHT22;5884;43.618;1.438;2023-08-31T16:13:43;25.60;99.90
11656;DHT22;5884;43.618;1.438;2023-08-31T16:16:10;25.50;99.90
11656;DHT22;5884;43.618;1.438;2023-08-31T16:18:37;25.60;99.90
11656;DHT22;5884;43.618;1.438;2023-08-31T16:21:06;25.70;99.90
11656;DHT22;5884;43.618;1.438;2023-08-31T16:23:33;25.70;99.90
11656;DHT22;5884;43.618;1.438;2023-08-31T16:26:00;25.70;99.90
11656;DHT22;5884;43.618;1.438;2023-08-31T16:28:28;25.70;99.90
11656;DHT22;5884;43.618;1.438;2023-08-31T16:30:56;25.70;99.90
11656;DHT22;5884;43.618;1.438;2023-08-31T16:33:23;25.60;99.90
11656;DHT22;5884;43.618;1.438;2023-08-31T16:35:56;25.50;99.90
11656;DHT22;5884;43.618;1.438;2023-08-31T16:38:25;25.60;99.90
11656;DHT22;5884;43.618;1.438;2023-08-31T16:40:53;25.70;99.90
11656;DHT22;5884;43.618;1.438;2023-08-31T16:43:20;25.70;99.90
11656;DHT22;5884;43.618;1.438;2023-08-31T16:45:49;25.60;99.90
11656;DHT22;5884;43.618;1.438;2023-08-31T16:48:16;25.40;99.90
11656;DHT22;5884;43.618;1.438;2023-08-31T16:50:44;25.40;99.90
11656;DHT22;5884;43.618;1.438;2023-08-31T16:53:11;25.40;99.90
11656;DHT22;5884;43.618;1.438;2023-08-31T16:55:39;25.40;99.90
11656;DHT22;5884;43.618;1.438;2023-08-31T16:58:07;25.40;99.90
11656;DHT22;5884;43.618;1.438;2023-08-31T17:00:34;25.40;99.90
11656;DHT22;5884;43.618;1.438;2023-08-31T17:03:02;25.30;99.90
11656;DHT22;5884;43.618;1.438;2023-08-31T17:05:31;25.20;99.90
11656;DHT22;5884;43.618;1.438;2023-08-31T17:07:58;25.20;99.90
11656;DHT22;5884;43.618;1.438;2023-08-31T17:10:25;25.20;99.90
11656;DHT22;5884;43.618;1.438;2023-08-31T17:12:54;25.20;99.90
11656;DHT22;5884;43.618;1.438;2023-08-31T17:15:21;25.10;99.90
11656;DHT22;5884;43.618;1.438;2023-08-31T17:17:48;25.10;99.90
11656;DHT22;5884;43.618;1.438;2023-08-31T17:20:16;25.20;99.90
11656;DHT22;5884;43.618;1.438;2023-08-31T17:22:44;25.10;99.90
11656;DHT22;5884;43.618;1.438;2023-08-31T17:25:12;25.10;99.90
11656;DHT22;5884;43.618;1.438;2023-08-31T17:27:39;25.00;99.90
11656;DHT22;5884;43.618;1.438;2023-08-31T17:30:09;25.00;99.90
11656;DHT22;5884;43.618;1.438;2023-08-31T17:32:36;24.90;99.90
11656;DHT22;5884;43.618;1.438;2023-08-31T17:35:05;24.90;99.90
11656;DHT22;5884;43.618;1.438;2023-08-31T17:37:33;24.80;99.90
11656;DHT22;5884;43.618;1.438;2023-08-31T17:40:01;24.70;99.90
11656;DHT22;5884;43.618;1.438;2023-08-31T17:42:33;24.80;99.90
11656;DHT22;5884;43.618;1.438;2023-08-31T17:45:01;24.70;99.90
11656;DHT22;5884;43.618;1.438;2023-08-31T17:47:30;24.60;99.90
11656;DHT22;5884;43.618;1.438;2023-08-31T17:49:57;24.60;99.90
11656;DHT22;5884;43.618;1.438;2023-08-31T17:52:24;24.60;99.90
11656;DHT22;5884;43.618;1.438;2023-08-31T17:54:51;24.60;99.90
11656;DHT22;5884;43.618;1.438;2023-08-31T17:57:19;24.60;99.90
11656;DHT22;5884;43.618;1.438;2023-08-31T17:59:47;24.50;99.90
11656;DHT22;5884;43.618;1.438;2023-08-31T18:02:14;24.40;99.90
11656;DHT22;5884;43.618;1.438;2023-08-31T18:04:43;24.40;99.90
11656;DHT22;5884;43.618;1.438;2023-08-31T18:07:10;24.40;99.90
11656;DHT22;5884;43.618;1.438;2023-08-31T18:09:38;24.30;99.90
11656;DHT22;5884;43.618;1.438;2023-08-31T18:12:06;24.20;99.90
11656;DHT22;5884;43.618;1.438;2023-08-31T18:14:35;24.10;99.90
11656;DHT22;5884;43.618;1.438;2023-08-31T18:17:03;24.10;99.90
11656;DHT22;5884;43.618;1.438;2023-08-31T18:19:31;23.90;99.90
11656;DHT22;5884;43.618;1.438;2023-08-31T18:22:02;23.80;99.90
11656;DHT22;5884;43.618;1.438;2023-08-31T18:24:29;23.80;99.90
11656;DHT22;5884;43.618;1.438;2023-08-31T18:26:56;23.80;99.90
11656;DHT22;5884;43.618;1.438;2023-08-31T18:29:24;23.80;99.90
11656;DHT22;5884;43.618;1.438;2023-08-31T18:31:51;23.70;99.90
11656;DHT22;5884;43.618;1.438;2023-08-31T18:34:19;23.70;99.90
11656;DHT22;5884;43.618;1.438;2023-08-31T18:36:46;23.60;99.90
11656;DHT22;5884;43.618;1.438;2023-08-31T18:39:15;23.40;99.90
11656;DHT22;5884;43.618;1.438;2023-08-31T18:41:43;23.30;99.90
11656;DHT22;5884;43.618;1.438;2023-08-31T18:44:10;23.30;99.90
11656;DHT22;5884;43.618;1.438;2023-08-31T18:46:38;23.20;99.90
11656;DHT22;5884;43.618;1.438;2023-08-31T18:49:05;23.10;99.90
11656;DHT22;5884;43.618;1.438;2023-08-31T18:51:32;23.00;99.90
11656;DHT22;5884;43.618;1.438;2023-08-31T18:54:05;23.00;99.90
11656;DHT22;5884;43.618;1.438;2023-08-31T18:56:34;22.90;99.90
11656;DHT22;5884;43.618;1.438;2023-08-31T18:59:01;22.80;99.90
11656;DHT22;5884;43.618;1.438;2023-08-31T19:01:29;22.80;99.90
11656;DHT22;5884;43.618;1.438;2023-08-31T19:03:56;22.70;99.90
11656;DHT22;5884;43.618;1.438;2023-08-31T19:06:23;22.70;99.90
11656;DHT22;5884;43.618;1.438;2023-08-31T19:08:52;22.60;99.90
11656;DHT22;5884;43.618;1.438;2023-08-31T19:11:19;22.50;99.90
11656;DHT22;5884;43.618;1.438;2023-08-31T19:13:48;22.50;99.90
11656;DHT22;5884;43.618;1.438;2023-08-31T19:16:15;22.50;99.90
11656;DHT22;5884;43.618;1.438;2023-08-31T19:18:43;22.40;99.90
11656;DHT22;5884;43.618;1.438;2023-08-31T19:21:11;22.40;99.90
11656;DHT22;5884;43.618;1.438;2023-08-31T19:23:38;22.50;99.90
11656;DHT22;5884;43.618;1.438;2023-08-31T19:26:07;22.50;99.90
11656;DHT22;5884;43.618;1.438;2023-08-31T19:28:35;22.60;99.90
11656;DHT22;5884;43.618;1.438;2023-08-31T19:31:04;22.60;99.90
11656;DHT22;5884;43.618;1.438;2023-08-31T19:33:32;22.50;99.90
11656;DHT22;5884;43.618;1.438;2023-08-31T19:35:59;22.60;99.90
11656;DHT22;5884;43.618;1.438;2023-08-31T19:38:26;22.50;99.90
11656;DHT22;5884;43.618;1.438;2023-08-31T19:40:54;22.40;99.90
11656;DHT22;5884;43.618;1.438;2023-08-31T19:43:21;22.30;99.90
11656;DHT22;5884;43.618;1.438;2023-08-31T19:45:48;22.20;99.90
11656;DHT22;5884;43.618;1.438;2023-08-31T19:48:17;22.10;99.90
11656;DHT22;5884;43.618;1.438;2023-08-31T19:50:45;22.00;99.90
11656;DHT22;5884;43.618;1.438;2023-08-31T19:53:14;22.00;99.90
11656;DHT22;5884;43.618;1.438;2023-08-31T19:55:41;21.90;99.90
11656;DHT22;5884;43.618;1.438;2023-08-31T19:58:08;21.90;99.90
11656;DHT22;5884;43.618;1.438;2023-08-31T20:00:35;21.90;99.90
11656;DHT22;5884;43.618;1.438;2023-08-31T20:03:03;21.90;99.90
11656;DHT22;5884;43.618;1.438;2023-08-31T20:05:32;21.80;99.90
11656;DHT22;5884;43.618;1.438;2023-08-31T20:07:59;21.80;99.90
11656;DHT22;5884;43.618;1.438;2023-08-31T20:10:26;21.80;99.90
11656;DHT22;5884;43.618;1.438;2023-08-31T20:12:53;21.70;99.90
11656;DHT22;5884;43.618;1.438;2023-08-31T20:15:21;21.70;99.90
11656;DHT22;5884;43.618;1.438;2023-08-31T20:17:49;21.60;99.90
11656;DHT22;5884;43.618;1.438;2023-08-31T20:20:17;21.60;99.90
11656;DHT22;5884;43.618;1.438;2023-08-31T20:22:46;21.50;99.90
11656;DHT22;5884;43.618;1.438;2023-08-31T20:25:14;21.50;99.90
11656;DHT22;5884;43.618;1.438;2023-08-31T20:27:44;21.40;99.90
11656;DHT22;5884;43.618;1.438;2023-08-31T20:30:12;21.30;99.90
11656;DHT22;5884;43.618;1.438;2023-08-31T20:32:39;21.30;99.90
11656;DHT22;5884;43.618;1.438;2023-08-31T20:35:07;21.30;99.90
11656;DHT22;5884;43.618;1.438;2023-08-31T20:37:36;21.20;99.90
11656;DHT22;5884;43.618;1.438;2023-08-31T20:40:06;21.20;99.90
11656;DHT22;5884;43.618;1.438;2023-08-31T20:42:35;21.20;99.90